Flight Track Log - Related Links

Times and Time Zones

All times are in EDT time to prevent confusion due to time zone crossing. See the N152SW flight status page for this flight to view local times or setup timezone preferences in your user account.

Time Position Orientation Groundspeed Altitude Reporting Facility
EDT Latitude Longitude Course Direction KTS MPH feet Rate Location/Type
Sun 03:27:48 PM 35.9547 -76.0564 261° West 140 161 3,000  Level Washington Center
Sun 03:28:49 PM 35.9567 -76.1028 273° West 140 161 3,500 595 Climbing Washington Center
Sun 03:29:49 PM 35.9608 -76.1411 278° West 129 148 4,200 694 Climbing Washington Center
Sun 03:30:50 PM 35.9606 -76.1797 270° West 119 137 4,900 694 Climbing Washington Center
Sun 03:31:50 PM 35.9603 -76.2106 269° West 104 120 5,600 661 Climbing Washington Center
Sun 03:32:00 PM 35.9244 -75.9374 280° West  Level FlightAware Approximate
Sun 03:32:48 PM 35.9353 -76.2153 189° South 70 81 6,200  Level Washington Center
Sun 03:33:00 PM 35.9194 -75.9781 261° West  Level FlightAware Approximate
Sun 03:33:48 PM 35.9372 -76.2589 273° West 83 96 6,200  Level Washington Center
Sun 03:34:49 PM 35.9431 -76.3000 280° West 111 128 6,400 -148 Climbing Washington Center
Sun 03:35:50 PM 35.9492 -76.3514 278° West 133 153 5,900 -250 Descending Washington Center
Sun 03:36:49 PM 35.9550 -76.4003 278° West 147 169 5,900 101 Level Washington Center
Sun 03:37:49 PM 35.9547 -76.4492 270° West 147 169 6,100 99 Climbing Washington Center
Sun 03:38:50 PM 35.9586 -76.4978 276° West 147 169 6,100  Level Washington Center
Sun 03:39:50 PM 35.9603 -76.5467 272° West 142 163 6,100  Level Washington Center
Sun 03:40:48 PM 35.9642 -76.5928 276° West 142 163 6,100  Level Washington Center
Sun 03:41:48 PM 35.9658 -76.6417 272° West 142 163 6,100 -49 Level Washington Center
Sun 03:42:50 PM 35.9675 -76.6878 273° West 142 163 6,000 -50 Descending Washington Center
Sun 03:43:48 PM 35.9711 -76.7392 275° West 142 163 6,000  Level Washington Center
Sun 03:44:49 PM 35.9728 -76.7856 273° West 142 163 6,000 -49 Level Washington Center
Sun 03:45:50 PM 35.9744 -76.8317 273° West 142 163 5,900 -99 Descending Washington Center
Sun 03:46:50 PM 35.9781 -76.8781 276° West 142 163 5,800  Descending Washington Center
Sun 03:47:50 PM 35.9817 -76.9242 276° West 142 163 5,900 102 Climbing Washington Center
Sun 03:48:48 PM 35.9853 -76.9678 276° West 142 163 6,000 51 Climbing Washington Center
Sun 03:49:48 PM 35.9892 -77.0142 276° West 142 163 6,000  Level Washington Center
Sun 03:50:49 PM 35.9822 -77.0525 257° West 135 155 6,000 -49 Level Washington Center
Sun 03:51:50 PM 35.9733 -77.1064 258° West 135 155 5,900 50 Descending Washington Center
Sun 03:52:50 PM 35.9458 -77.1289 214° Southwest 130 150 6,100 100 Climbing Washington Center
Sun 03:53:50 PM 35.9186 -77.1514 214° Southwest 125 144 6,100 51 Level Washington Center
Sun 03:54:48 PM 35.9033 -77.1922 245° Southwest 130 150 6,200 -51 Climbing Washington Center
Sun 03:55:48 PM 35.9111 -77.2383 282° West 125 144 6,000 -99 Descending Washington Center
Sun 03:56:49 PM 35.9167 -77.2822 279° West 125 144 6,000 49 Level Washington Center
Sun 03:57:50 PM 35.9222 -77.3283 278° West 137 158 6,100 50 Climbing Washington Center
Sun 03:58:50 PM 35.9278 -77.3772 278° West 137 158 6,100  Level Washington Center
Sun 03:59:48 PM 35.9333 -77.4261 278° West 142 163 6,100 -50 Level Washington Center
Sun 04:00:49 PM 35.9369 -77.4725 276° West 142 163 6,000 -49 Descending Washington Center
Sun 04:01:51 PM 35.9383 -77.5186 272° West 142 163 6,000 -50 Level Washington Center
Sun 04:02:48 PM 35.9458 -77.5650 281° West 142 163 5,900 -50 Descending Washington Center
Sun 04:03:50 PM 35.9472 -77.6111 272° West 142 163 5,900  Level Washington Center
Sun 04:04:49 PM 35.9525 -77.6575 278° West 142 163 5,900 50 Level Washington Center
Sun 04:05:50 PM 35.9561 -77.7014 276° West 142 163 6,000  Climbing Washington Center
Sun 04:06:50 PM 35.9614 -77.7475 278° West 137 158 5,900  Descending Washington Center
Sun 04:07:48 PM 35.9711 -77.7942 284° West 142 163 6,000  Climbing Washington Center
Sun 04:08:50 PM 35.9744 -77.8403 275° West 142 163 5,900 -49 Descending Washington Center
Sun 04:09:50 PM 35.9797 -77.8817 279° West 142 163 5,900  Level Washington Center
Sun 04:10:51 PM 35.9872 -77.9281 281° West 142 163 5,900  Level Washington Center
Sun 04:11:49 PM 35.9928 -77.9717 279° West 142 163 5,900 -57 Level Washington Center
Sun 04:12:37 PM 35.9961 -78.0103 276° West 133 153 5,800  Descending Washington Center
Sun 04:13:37 PM 35.9992 -78.0567 275° West 134 154 5,900 49 Climbing Washington Center
Sun 04:14:39 PM 36.0044 -78.1056 278° West 129 148 5,900 49 Level Washington Center
Sun 04:15:40 PM 36.0081 -78.1417 277° West 127 146 6,000 99 Climbing Washington Center
Sun 04:16:40 PM 36.0131 -78.1881 278° West 126 145 6,100  Climbing Washington Center
Sun 04:17:42 PM 36.0186 -78.2319 279° West 128 147 6,000 -98 Descending Washington Center
Sun 04:18:42 PM 36.0194 -78.2781 271° West 133 153 5,900  Descending Washington Center
Sun 04:19:49 PM 36.0269 -78.3194 283° West 137 158 6,000 47 Climbing Washington Center
Sun 04:20:49 PM 36.0300 -78.3711 274° West 137 158 6,000 -52 Level Washington Center
Sun 04:21:44 PM 36.0436 -78.4153 291° West 147 169 5,900  Descending Washington Center
Sun 04:22:45 PM 36.0614 -78.4569 298° West 139 160 6,000 50 Climbing Washington Center
Sun 04:23:45 PM 36.0769 -78.4986 295° West 138 159 6,000 50 Level Washington Center
Sun 04:24:46 PM 36.0967 -78.5431 299° West 139 160 6,100  Climbing Washington Center
Sun 04:25:47 PM 36.1122 -78.5872 294° West 143 165 6,000 -98 Descending Washington Center
Sun 04:26:48 PM 36.1319 -78.6344 297° West 141 162 5,900 -49 Descending Washington Center
Sun 04:27:49 PM 36.1436 -78.6758 289° West 137 158 5,900  Level Washington Center
Sun 04:28:49 PM 36.1444 -78.7222 271° West 131 151 5,900  Level Washington Center
Sun 04:29:50 PM 36.1453 -78.7661 271° West 129 148 5,900 49 Level Washington Center
Sun 04:30:51 PM 36.1419 -78.8122 265° West 133 153 6,000 49 Climbing Washington Center
Sun 04:31:52 PM 36.1408 -78.8558 268° West 132 152 6,000 -50 Level Washington Center
Sun 04:32:50 PM 36.1375 -78.9047 265° West 130 150 5,900 -50 Descending Washington Center
Sun 04:33:51 PM 36.1361 -78.9483 268° West 128 147 5,900 -50 Level Washington Center
Sun 04:34:51 PM 36.1350 -78.9894 268° West 127 146 5,800 50 Descending Washington Center
Sun 04:35:52 PM 36.1336 -79.0331 268° West 124 143 6,000 97 Climbing Washington Center
Sun 04:36:55 PM 36.1306 -79.0742 265° West 117 135 6,000  Level Washington Center
Sun 04:37:56 PM 36.1292 -79.1178 268° West 125 144 6,000  Level Washington Center
Sun 04:38:56 PM 36.1236 -79.1611 261° West 124 143 6,000 -51 Level Washington Center
Sun 04:39:54 PM 36.1222 -79.2075 268° West 127 146 5,900 -47 Descending Washington Center
Sun 04:41:04 PM 36.1189 -79.2536 265° West 129 148 5,900  Level Washington Center
Sun 04:42:04 PM 36.1153 -79.2972 264° West 131 151 5,900  Level Washington Center
Sun 04:43:05 PM 36.1161 -79.3408 271° West 126 145 5,900 50 Level Washington Center
Sun 04:44:05 PM 36.1125 -79.3869 264° West 144 166 6,000  Climbing Washington Center
Sun 04:45:06 PM 36.1153 -79.4308 274° West 122 140 5,900 -50 Descending Washington Center
Sun 04:46:04 PM 36.1119 -79.4719 264° West 118 136 5,900  Level Washington Center
Sun 04:47:05 PM 36.1128 -79.5131 271° West 122 140 5,900 98 Level Washington Center
Sun 04:48:06 PM 36.1133 -79.5542 271° West 120 138 6,100 197 Climbing Washington Center
Sun 04:50:00 PM 36.1001 -79.6506 270° West  Level FlightAware Approximate
Sun 04:57:00 PM 36.1000 -79.9333 270° West  Level FlightAware Approximate
Sun 04:58:00 PM 36.1013 -79.9411 270° West  Level Estimated
Sun 04:59:00 PM 36.1000 -79.9333 270° West  Level FlightAware Approximate
Sun 05:00:00 PM 36.1013 -79.9411 270° West  Level Estimated
Sun 05:01:00 PM 36.1000 -79.9333 270° West  Level FlightAware Approximate
Sun 05:02:00 PM 36.1013 -79.9411 270° West  Level Estimated
Sun 05:03:00 PM 36.1000 -79.9333 270° West  Level FlightAware Approximate
Sun 05:04:00 PM 36.1013 -79.9411 270° West  Level Estimated
Sun 05:05:00 PM 36.1000 -79.9333 270° West  Level FlightAware Approximate
Sun 05:06:00 PM 36.1013 -79.9411 270° West  Level Estimated
Sun 05:07:00 PM 36.1000 -79.9333 270° West  Level FlightAware Approximate
Sun 05:08:00 PM 36.1013 -79.9411 270° West  Level Estimated
Sun 05:09:00 PM 36.1000 -79.9333 270° West  Level FlightAware Approximate
Sun 05:10:00 PM 36.1013 -79.9411 270° West  Level Estimated
Sun 05:11:00 PM 36.1000 -79.9333 270° West  Level FlightAware Approximate
Sun 05:12:00 PM 36.1013 -79.9411 270° West  Level Estimated
Sun 05:13:00 PM 36.1000 -79.9333 270° West  Level FlightAware Approximate
Sun 05:14:00 PM 36.1013 -79.9411 270° West  Level Estimated

Login

Don't have an account? Register now (free) for customized features, flight alerts, and more!